createdAt,value
2018-01-07T00:00:49.944Z,11.50
2018-01-07T00:03:18.310Z,11.90
2018-01-07T00:05:45.933Z,12.40
2018-01-07T00:08:13.544Z,11.30
2018-01-07T00:10:41.140Z,11.17
2018-01-07T00:13:08.787Z,12.37
2018-01-07T00:15:36.364Z,16.60
2018-01-07T00:18:03.986Z,11.83
2018-01-07T00:20:31.573Z,11.20
2018-01-07T00:22:59.151Z,11.27
2018-01-07T00:25:26.761Z,11.50
2018-01-07T00:27:54.357Z,11.50
2018-01-07T00:30:21.999Z,11.20
2018-01-07T00:32:49.579Z,12.30
2018-01-07T00:35:17.215Z,10.93
2018-01-07T00:37:44.821Z,12.30
2018-01-07T00:40:12.409Z,11.30
2018-01-07T00:42:40.038Z,10.90
2018-01-07T00:45:07.645Z,11.20
2018-01-07T00:47:35.251Z,11.17
2018-01-07T00:50:02.869Z,11.30
2018-01-07T00:52:31.080Z,10.93
2018-01-07T00:54:58.700Z,11.03
2018-01-07T00:57:26.758Z,11.23
2018-01-07T00:59:54.331Z,12.90
2018-01-07T01:02:21.929Z,11.40
2018-01-07T01:04:49.551Z,10.70
2018-01-07T01:07:17.177Z,11.43
2018-01-07T01:09:44.740Z,10.90
2018-01-07T01:12:12.313Z,13.23
2018-01-07T01:14:40.887Z,10.20
2018-01-07T01:17:08.737Z,12.53
2018-01-07T01:19:36.356Z,10.67
2018-01-07T01:22:04.273Z,11.30
2018-01-07T01:24:32.625Z,10.50
2018-01-07T01:27:00.240Z,11.90
2018-01-07T01:29:27.816Z,10.10
2018-01-07T01:31:55.440Z,11.70
2018-01-07T01:34:23.033Z,12.20
2018-01-07T01:36:50.632Z,11.70
2018-01-07T01:39:18.238Z,11.00
2018-01-07T01:41:45.813Z,12.57
2018-01-07T01:44:13.436Z,11.53
2018-01-07T01:46:41.015Z,11.03
2018-01-07T01:49:20.379Z,11.00
2018-01-07T01:51:48.525Z,12.63
2018-01-07T01:54:16.096Z,10.77
2018-01-07T01:59:15.369Z,11.50
2018-01-07T02:01:42.987Z,11.67
2018-01-07T02:04:10.568Z,14.63
2018-01-07T02:06:38.744Z,12.50
2018-01-07T02:09:06.355Z,12.80
2018-01-07T02:11:33.949Z,11.33
2018-01-07T02:14:01.899Z,12.23
2018-01-07T02:16:29.663Z,12.77
2018-01-07T02:18:57.243Z,12.50
2018-01-07T02:21:24.883Z,13.53
2018-01-07T02:23:52.460Z,12.90
2018-01-07T02:26:20.410Z,12.00
2018-01-07T02:28:47.976Z,11.10
2018-01-07T02:31:15.568Z,11.73
2018-01-07T02:33:43.300Z,17.43
2018-01-07T02:36:11.166Z,11.47
2018-01-07T02:38:38.820Z,11.47
2018-01-07T02:41:06.399Z,13.13
2018-01-07T02:43:33.980Z,12.63
2018-01-07T02:46:01.586Z,10.97
2018-01-07T02:48:29.507Z,12.17
2018-01-07T02:50:57.162Z,11.43
2018-01-07T02:53:24.792Z,14.07
2018-01-07T02:55:52.672Z,13.73
2018-01-07T02:58:20.306Z,11.30
2018-01-07T03:00:48.208Z,11.00
2018-01-07T03:03:15.833Z,12.17
2018-01-07T03:05:43.407Z,10.50
2018-01-07T03:08:11.002Z,10.07
2018-01-07T03:10:38.622Z,10.20
2018-01-07T03:13:06.211Z,13.43
2018-01-07T03:15:33.853Z,9.83
2018-01-07T03:18:01.428Z,9.60
2018-01-07T03:20:29.003Z,9.70
2018-01-07T03:22:56.610Z,9.97
2018-01-07T03:25:24.191Z,10.53
2018-01-07T03:27:52.412Z,9.90
2018-01-07T03:30:19.976Z,9.67
2018-01-07T03:32:47.578Z,15.07
2018-01-07T03:35:15.191Z,9.97
2018-01-07T03:37:42.785Z,9.17
2018-01-07T03:40:10.709Z,9.43
2018-01-07T03:42:38.576Z,9.40
2018-01-07T03:45:06.445Z,9.87
2018-01-07T03:47:34.057Z,10.17
2018-01-07T03:50:02.493Z,11.00
2018-01-07T03:52:30.456Z,8.90
2018-01-07T03:54:58.324Z,9.67
2018-01-07T03:57:25.900Z,9.53
2018-01-07T03:59:53.518Z,9.40
2018-01-07T04:02:21.112Z,10.30
2018-01-07T04:04:48.760Z,9.40
2018-01-07T04:07:16.335Z,9.70
2018-01-07T04:09:43.931Z,8.97
2018-01-07T04:12:11.532Z,9.47
2018-01-07T04:14:39.125Z,9.57
2018-01-07T04:17:06.753Z,9.70
2018-01-07T04:19:34.335Z,13.23
2018-01-07T04:22:02.145Z,9.80
2018-01-07T04:24:29.780Z,14.33
2018-01-07T04:26:57.358Z,10.00
2018-01-07T04:29:24.982Z,9.07
2018-01-07T04:31:52.808Z,11.43
2018-01-07T04:34:20.411Z,9.40
2018-01-07T04:36:48.016Z,9.40
2018-01-07T04:39:15.584Z,9.43
2018-01-07T04:41:43.211Z,9.77
2018-01-07T04:44:10.803Z,10.03
2018-01-07T04:46:38.390Z,9.00
2018-01-07T04:49:06.008Z,10.17
2018-01-07T04:51:33.580Z,9.80
2018-01-07T04:54:01.166Z,10.53
2018-01-07T04:56:28.791Z,9.40
2018-01-07T04:58:56.355Z,9.83
2018-01-07T05:01:24.229Z,10.80
2018-01-07T05:03:51.840Z,10.80
2018-01-07T05:06:19.418Z,8.93
2018-01-07T05:08:47.305Z,9.17
2018-01-07T05:11:14.893Z,9.87
2018-01-07T05:13:42.742Z,9.83
2018-01-07T05:16:10.353Z,9.27
2018-01-07T05:18:37.927Z,13.23
2018-01-07T05:21:05.504Z,9.57
2018-01-07T05:23:33.110Z,12.20
2018-01-07T05:26:00.692Z,9.27
2018-01-07T05:28:28.391Z,9.30
2018-01-07T05:30:55.963Z,11.07
2018-01-07T05:33:23.629Z,9.80
2018-01-07T05:35:51.236Z,9.97
2018-01-07T05:38:18.808Z,9.67
2018-01-07T05:40:46.431Z,9.23
2018-01-07T05:43:14.016Z,9.80
2018-01-07T05:45:41.593Z,8.90
2018-01-07T05:48:09.500Z,10.70
2018-01-07T05:50:37.077Z,12.93
2018-01-07T05:53:04.697Z,9.30
2018-01-07T05:55:32.277Z,13.20
2018-01-07T05:57:59.857Z,9.67
2018-01-07T06:00:27.711Z,9.70
2018-01-07T06:02:55.313Z,8.93
2018-01-07T06:05:22.929Z,10.70
2018-01-07T06:07:50.496Z,9.23
2018-01-07T06:10:18.080Z,9.60
2018-01-07T06:12:45.923Z,9.10
2018-01-07T06:15:13.508Z,9.17
2018-01-07T06:17:41.115Z,9.20
2018-01-07T06:20:08.683Z,11.23
2018-01-07T06:22:36.251Z,9.80
2018-01-07T06:25:03.873Z,9.40
2018-01-07T06:27:31.480Z,9.20
2018-01-07T06:29:59.464Z,9.13
2018-01-07T06:32:27.334Z,9.20
2018-01-07T06:34:54.904Z,9.40
2018-01-07T06:37:22.562Z,11.07
2018-01-07T06:39:50.135Z,9.33
2018-01-07T06:42:18.084Z,9.10
2018-01-07T06:44:45.962Z,9.93
2018-01-07T06:47:13.540Z,10.63
2018-01-07T06:49:41.132Z,8.97
2018-01-07T06:52:09.053Z,11.43
2018-01-07T06:54:36.911Z,12.70
2018-01-07T06:57:04.485Z,9.77
2018-01-07T06:59:32.345Z,9.87
2018-01-07T07:01:59.959Z,9.60
2018-01-07T07:04:27.541Z,10.60
2018-01-07T07:06:55.536Z,9.50
2018-01-07T07:09:23.107Z,9.43
2018-01-07T07:11:50.668Z,9.57
2018-01-07T07:14:18.269Z,9.80
2018-01-07T07:16:45.843Z,10.43
2018-01-07T07:19:13.756Z,14.00
2018-01-07T07:21:41.337Z,11.03
2018-01-07T07:24:08.924Z,11.60
2018-01-07T07:26:36.540Z,10.90
2018-01-07T07:29:04.120Z,13.83
2018-01-07T07:31:32.064Z,13.43
2018-01-07T07:33:59.648Z,15.70
2018-01-07T07:36:27.232Z,12.10
2018-01-07T07:38:55.167Z,12.40
2018-01-07T07:41:22.746Z,16.30
2018-01-07T07:43:50.359Z,16.57
2018-01-07T07:46:17.935Z,13.80
2018-01-07T07:48:45.511Z,18.70
2018-01-07T07:51:13.115Z,15.40
2018-01-07T07:53:46.284Z,18.07
2018-01-07T07:56:16.283Z,18.80
2018-01-07T07:58:43.851Z,17.10
2018-01-07T08:01:11.439Z,15.77
2018-01-07T08:03:39.061Z,20.13
2018-01-07T08:06:06.635Z,21.33
2018-01-07T08:08:34.255Z,14.57
2018-01-07T08:11:02.154Z,16.60
2018-01-07T08:13:29.749Z,14.33
2018-01-07T08:15:57.371Z,16.83
2018-01-07T08:18:24.946Z,15.03
2018-01-07T08:20:52.590Z,14.87
2018-01-07T08:23:20.471Z,14.10
2018-01-07T08:25:48.048Z,15.20
2018-01-07T08:28:15.695Z,31.40
2018-01-07T08:30:43.288Z,15.77
2018-01-07T08:33:10.934Z,14.20
2018-01-07T08:35:38.582Z,14.10
2018-01-07T08:38:06.549Z,15.13
2018-01-07T08:40:34.172Z,16.90
2018-01-07T08:43:02.084Z,17.07
2018-01-07T08:45:29.733Z,12.60
2018-01-07T08:47:57.312Z,14.40
2018-01-07T08:50:24.911Z,13.27
2018-01-07T08:52:52.532Z,13.60
2018-01-07T08:55:20.128Z,12.73
2018-01-07T08:57:47.755Z,13.40
2018-01-07T09:00:15.361Z,12.10
2018-01-07T09:02:42.956Z,12.47
2018-01-07T09:05:10.602Z,12.63
2018-01-07T09:07:38.175Z,13.90
2018-01-07T09:10:05.802Z,12.83
2018-01-07T09:12:33.413Z,16.43
2018-01-07T09:15:01.032Z,11.17
2018-01-07T09:17:28.955Z,10.60
2018-01-07T09:19:56.533Z,10.00
2018-01-07T09:22:24.145Z,11.20
2018-01-07T09:24:51.737Z,11.27
2018-01-07T09:27:19.340Z,10.73
2018-01-07T09:29:46.939Z,11.87
2018-01-07T09:32:14.532Z,16.80
2018-01-07T09:34:42.150Z,10.63
2018-01-07T09:37:09.734Z,18.10
2018-01-07T09:39:37.369Z,11.43
2018-01-07T09:42:05.015Z,9.60
2018-01-07T09:44:33.527Z,11.57
2018-01-07T09:47:01.524Z,10.57
2018-01-07T09:49:29.103Z,13.13
2018-01-07T09:51:58.631Z,9.47
2018-01-07T09:54:26.258Z,10.13
2018-01-07T09:56:53.853Z,11.53
2018-01-07T09:59:21.788Z,10.00
2018-01-07T10:01:49.392Z,9.53
2018-01-07T10:04:16.969Z,9.40
2018-01-07T10:06:44.589Z,12.00
2018-01-07T10:09:12.168Z,11.43
2018-01-07T10:11:39.809Z,12.20
2018-01-07T10:14:07.385Z,9.10
2018-01-07T10:16:34.964Z,9.10
2018-01-07T10:19:02.560Z,11.10
2018-01-07T10:21:30.147Z,9.30
2018-01-07T10:23:57.767Z,8.90
2018-01-07T10:26:25.681Z,11.67
2018-01-07T10:28:53.260Z,8.90
2018-01-07T10:31:20.914Z,9.40
2018-01-07T10:33:48.496Z,9.07
2018-01-07T10:36:16.122Z,9.43
2018-01-07T10:38:43.944Z,10.53
2018-01-07T10:41:11.524Z,9.30
2018-01-07T10:43:39.175Z,9.13
2018-01-07T10:46:06.750Z,26.57
2018-01-07T10:48:34.383Z,13.93
2018-01-07T10:51:01.964Z,8.50
2018-01-07T10:53:29.533Z,9.50
2018-01-07T10:55:57.134Z,9.23
2018-01-07T10:58:25.292Z,9.23
2018-01-07T11:00:58.588Z,8.83
2018-01-07T11:03:26.453Z,9.20
2018-01-07T11:05:54.037Z,11.80
2018-01-07T11:08:21.981Z,8.97
2018-01-07T11:10:49.651Z,9.37
2018-01-07T11:13:17.824Z,10.40
2018-01-07T11:15:45.513Z,9.60
2018-01-07T11:18:13.451Z,9.00
2018-01-07T11:20:41.325Z,9.33
2018-01-07T11:23:08.888Z,9.53
2018-01-07T11:25:36.853Z,9.67
2018-01-07T11:28:04.725Z,12.43
2018-01-07T11:30:32.380Z,9.00
2018-01-07T11:33:00.018Z,9.43
2018-01-07T11:35:27.643Z,12.17
2018-01-07T11:37:55.252Z,9.87
2018-01-07T11:40:22.883Z,9.83
2018-01-07T11:42:50.551Z,8.83
2018-01-07T11:45:18.157Z,8.57
2018-01-07T11:47:45.739Z,8.90
2018-01-07T11:50:13.357Z,8.07
2018-01-07T11:52:40.935Z,8.93
2018-01-07T11:55:08.507Z,9.03
2018-01-07T11:57:36.473Z,11.50
2018-01-07T12:00:04.460Z,15.43
2018-01-07T12:02:32.140Z,10.30
2018-01-07T12:04:59.802Z,8.77
2018-01-07T12:07:27.399Z,9.20
2018-01-07T12:09:55.013Z,10.10
2018-01-07T12:12:22.642Z,9.40
2018-01-07T12:14:50.282Z,10.23
2018-01-07T12:17:17.862Z,9.87
2018-01-07T12:19:45.481Z,9.03
2018-01-07T12:22:13.094Z,10.50
2018-01-07T12:24:40.702Z,11.23
2018-01-07T12:27:08.334Z,9.23
2018-01-07T12:29:36.234Z,10.27
2018-01-07T12:32:03.810Z,12.67
2018-01-07T12:34:31.440Z,11.90
2018-01-07T12:36:59.083Z,8.97
2018-01-07T12:39:26.757Z,10.87
2018-01-07T12:41:54.378Z,9.97
2018-01-07T12:44:22.015Z,10.00
2018-01-07T12:46:49.595Z,13.40
2018-01-07T12:49:17.301Z,9.20
2018-01-07T12:51:44.901Z,10.67
2018-01-07T12:54:12.509Z,10.73
2018-01-07T12:56:40.394Z,9.70
2018-01-07T12:59:08.259Z,11.67
2018-01-07T13:01:35.880Z,11.47
2018-01-07T13:04:03.523Z,10.23
2018-01-07T13:06:31.572Z,11.50
2018-01-07T13:08:59.203Z,8.93
2018-01-07T13:11:26.808Z,12.80
2018-01-07T13:13:54.495Z,9.40
2018-01-07T13:16:22.107Z,19.40
2018-01-07T13:18:49.692Z,9.97
2018-01-07T13:21:17.644Z,14.70
2018-01-07T13:23:45.379Z,10.33
2018-01-07T13:26:13.005Z,12.57
2018-01-07T13:28:40.624Z,12.90
2018-01-07T13:31:08.235Z,10.87
2018-01-07T13:33:35.845Z,9.43
2018-01-07T13:36:03.433Z,9.93
2018-01-07T13:38:32.313Z,11.73
2018-01-07T13:40:59.892Z,11.87
2018-01-07T13:43:27.828Z,21.97
2018-01-07T13:45:55.428Z,9.80
2018-01-07T13:48:23.005Z,10.30
2018-01-07T13:50:50.728Z,12.13
2018-01-07T13:53:18.305Z,9.37
2018-01-07T13:55:45.940Z,10.47
2018-01-07T13:58:13.548Z,10.23
2018-01-07T14:00:41.144Z,13.00
2018-01-07T14:03:09.044Z,10.23
2018-01-07T14:05:37.004Z,12.30
2018-01-07T14:08:04.625Z,11.00
2018-01-07T14:10:32.243Z,13.87
2018-01-07T14:12:59.852Z,12.37
2018-01-07T14:15:27.869Z,11.70
2018-01-07T14:17:55.459Z,9.67
2018-01-07T14:20:23.074Z,19.30
2018-01-07T14:22:50.719Z,10.23
2018-01-07T14:25:18.931Z,14.60
2018-01-07T14:27:46.588Z,11.83
2018-01-07T14:30:14.240Z,10.43
2018-01-07T14:32:41.855Z,10.10
2018-01-07T14:35:09.499Z,9.73
2018-01-07T14:37:37.876Z,13.50
2018-01-07T14:40:05.494Z,11.60
2018-01-07T14:42:33.414Z,11.63
2018-01-07T14:45:01.025Z,13.80
2018-01-07T14:47:28.668Z,15.67
2018-01-07T14:49:56.264Z,10.17
2018-01-07T14:52:23.904Z,14.33
2018-01-07T14:54:51.538Z,10.30
2018-01-07T14:57:19.168Z,15.47
2018-01-07T14:59:46.805Z,14.70
2018-01-07T15:02:14.683Z,11.47
2018-01-07T15:04:42.320Z,12.97
2018-01-07T15:07:10.222Z,13.20
2018-01-07T15:09:37.825Z,21.33
2018-01-07T15:12:05.449Z,11.33
2018-01-07T15:14:33.036Z,9.83
2018-01-07T15:17:00.680Z,13.37
2018-01-07T15:19:28.270Z,17.93
2018-01-07T15:21:55.939Z,11.10
2018-01-07T15:24:23.574Z,12.23
2018-01-07T15:26:51.158Z,12.07
2018-01-07T15:29:18.888Z,11.33
2018-01-07T15:31:46.716Z,21.10
2018-01-07T15:34:14.316Z,11.10
2018-01-07T15:36:42.198Z,11.37
2018-01-07T15:39:09.788Z,16.37
2018-01-07T15:41:38.393Z,11.50
2018-01-07T15:44:06.116Z,13.87
2018-01-07T15:46:33.710Z,12.57
2018-01-07T15:49:01.361Z,13.47
2018-01-07T15:51:28.940Z,13.67
2018-01-07T15:53:56.878Z,15.63
2018-01-07T15:56:24.524Z,14.67
2018-01-07T15:58:52.377Z,16.30
2018-01-07T16:01:20.015Z,12.10
2018-01-07T16:03:47.681Z,12.07
2018-01-07T16:06:15.342Z,17.33
2018-01-07T16:08:42.932Z,17.90
2018-01-07T16:11:10.520Z,20.03
2018-01-07T16:13:38.463Z,15.33
2018-01-07T16:16:06.048Z,14.30
2018-01-07T16:18:33.707Z,13.57
2018-01-07T16:21:01.666Z,11.40
2018-01-07T16:23:29.532Z,12.23
2018-01-07T16:25:57.194Z,13.10
2018-01-07T16:28:24.811Z,11.13
2018-01-07T16:30:52.445Z,14.87
2018-01-07T16:33:20.384Z,16.30
2018-01-07T16:35:47.960Z,14.57
2018-01-07T16:38:15.576Z,12.23
2018-01-07T16:40:43.563Z,12.80
2018-01-07T16:43:11.193Z,10.60
2018-01-07T16:45:38.816Z,19.43
2018-01-07T16:48:06.764Z,14.00
2018-01-07T16:50:35.286Z,14.53
2018-01-07T16:53:02.916Z,13.80
2018-01-07T16:58:04.178Z,13.77
2018-01-07T17:00:31.856Z,14.07
2018-01-07T17:02:59.466Z,13.73
2018-01-07T17:05:27.059Z,13.20
2018-01-07T17:07:54.673Z,13.20
2018-01-07T17:10:22.281Z,10.97
2018-01-07T17:12:49.961Z,16.30
2018-01-07T17:15:17.578Z,11.47
2018-01-07T17:17:45.474Z,15.67
2018-01-07T17:20:13.261Z,15.77
2018-01-07T17:22:40.876Z,13.50
2018-01-07T17:25:20.028Z,12.97
2018-01-07T17:27:47.627Z,16.07
2018-01-07T17:30:15.244Z,16.83
2018-01-07T17:32:42.907Z,17.07
2018-01-07T17:35:10.524Z,18.40
2018-01-07T17:37:38.313Z,15.50
2018-01-07T17:40:05.893Z,12.87
2018-01-07T17:42:33.574Z,14.10
2018-01-07T17:45:01.295Z,13.40
2018-01-07T17:47:28.946Z,13.03
2018-01-07T17:49:56.608Z,21.63
2018-01-07T17:52:24.241Z,13.03
2018-01-07T17:54:52.344Z,19.93
2018-01-07T17:57:20.017Z,19.93
2018-01-07T17:59:47.635Z,13.03
2018-01-07T18:02:15.300Z,17.17
2018-01-07T18:04:43.016Z,15.90
2018-01-07T18:07:10.655Z,11.80
2018-01-07T18:09:38.355Z,14.93
2018-01-07T18:12:05.953Z,13.30
2018-01-07T18:14:33.583Z,12.13
2018-01-07T18:17:01.380Z,10.43
2018-01-07T18:19:29.283Z,14.37
2018-01-07T18:21:56.979Z,13.20
2018-01-07T18:24:25.589Z,14.13
2018-01-07T18:26:53.451Z,14.23
2018-01-07T18:29:21.037Z,14.27
2018-01-07T18:31:48.898Z,13.27
2018-01-07T18:34:16.512Z,14.60
2018-01-07T18:36:44.138Z,11.77
2018-01-07T18:39:12.077Z,14.57
2018-01-07T18:41:39.670Z,19.93
2018-01-07T18:44:07.268Z,12.80
2018-01-07T18:46:34.912Z,13.37
2018-01-07T18:49:02.553Z,14.70
2018-01-07T18:51:30.208Z,20.73
2018-01-07T18:53:57.796Z,12.23
2018-01-07T18:56:25.421Z,16.90
2018-01-07T18:58:53.064Z,14.87
2018-01-07T19:01:20.668Z,15.00
2018-01-07T19:03:48.454Z,12.43
2018-01-07T19:06:16.066Z,16.93
2018-01-07T19:08:43.728Z,14.47
2018-01-07T19:11:11.359Z,14.43
2018-01-07T19:13:39.025Z,12.27
2018-01-07T19:16:06.746Z,11.67
2018-01-07T19:18:34.371Z,14.87
2018-01-07T19:21:02.047Z,14.90
2018-01-07T19:23:29.668Z,13.90
2018-01-07T19:25:57.316Z,12.97
2018-01-07T19:28:24.976Z,13.93
2018-01-07T19:30:52.576Z,12.77
2018-01-07T19:33:20.200Z,16.00
2018-01-07T19:35:47.886Z,19.37
2018-01-07T19:38:15.481Z,14.17
2018-01-07T19:40:43.116Z,13.47
2018-01-07T19:43:10.926Z,12.77
2018-01-07T19:45:38.605Z,11.90
2018-01-07T19:48:06.316Z,11.13
2018-01-07T19:50:34.462Z,11.77
2018-01-07T19:53:02.388Z,12.63
2018-01-07T19:55:31.382Z,12.07
2018-01-07T19:58:08.261Z,14.77
2018-01-07T20:00:37.397Z,18.03
2018-01-07T20:03:05.023Z,14.73
2018-01-07T20:05:32.683Z,14.60
2018-01-07T20:08:00.647Z,17.10
2018-01-07T20:10:28.614Z,17.03
2018-01-07T20:12:56.218Z,14.30
2018-01-07T20:15:23.820Z,15.90
2018-01-07T20:17:51.539Z,15.30
2018-01-07T20:20:19.161Z,15.60
2018-01-07T20:22:46.799Z,15.60
2018-01-07T20:25:14.466Z,19.43
2018-01-07T20:27:42.062Z,18.63
2018-01-07T20:30:09.711Z,19.57
2018-01-07T20:32:37.428Z,14.93
2018-01-07T20:35:05.085Z,13.70
2018-01-07T20:37:32.675Z,15.80
2018-01-07T20:40:00.575Z,16.13
2018-01-07T20:42:28.587Z,15.33
2018-01-07T20:44:56.213Z,14.93
2018-01-07T20:47:24.171Z,15.03
2018-01-07T20:49:51.775Z,14.73
2018-01-07T20:52:19.360Z,13.17
2018-01-07T20:54:46.995Z,15.70
2018-01-07T20:57:14.661Z,18.87
2018-01-07T20:59:42.292Z,18.70
2018-01-07T21:02:09.962Z,17.63
2018-01-07T21:04:37.597Z,14.77
2018-01-07T21:07:05.187Z,22.63
2018-01-07T21:09:32.821Z,15.83
2018-01-07T21:12:00.431Z,13.83
2018-01-07T21:14:28.072Z,17.30
2018-01-07T21:16:56.032Z,15.70
2018-01-07T21:19:23.900Z,20.00
2018-01-07T21:21:51.525Z,20.90
2018-01-07T21:24:19.116Z,14.57
2018-01-07T21:26:46.703Z,17.37
2018-01-07T21:29:14.321Z,17.53
2018-01-07T21:31:42.032Z,15.57
2018-01-07T21:34:09.679Z,16.73
2018-01-07T21:36:37.854Z,19.97
2018-01-07T21:39:05.436Z,16.43
2018-01-07T21:41:33.862Z,15.07
2018-01-07T21:44:01.450Z,20.00
2018-01-07T21:46:29.440Z,16.63
2018-01-07T21:48:57.028Z,15.10
2018-01-07T21:51:24.625Z,15.17
2018-01-07T21:53:52.331Z,15.40
2018-01-07T21:56:19.949Z,15.00
2018-01-07T21:58:47.637Z,16.17
2018-01-07T22:01:26.919Z,15.33
2018-01-07T22:04:02.622Z,15.37
2018-01-07T22:06:41.875Z,16.83
2018-01-07T22:09:09.524Z,15.77
2018-01-07T22:11:37.115Z,20.20
2018-01-07T22:14:05.013Z,19.47
2018-01-07T22:16:32.917Z,13.20
2018-01-07T22:19:00.588Z,17.97
2018-01-07T22:21:28.224Z,16.33
2018-01-07T22:23:55.813Z,15.90
2018-01-07T22:26:23.443Z,19.40
2018-01-07T22:28:51.127Z,24.00
2018-01-07T22:31:19.005Z,17.97
2018-01-07T22:33:46.684Z,14.13
2018-01-07T22:36:14.378Z,21.67
2018-01-07T22:38:41.982Z,16.43
2018-01-07T22:41:09.771Z,19.23
2018-01-07T22:43:37.402Z,15.47
2018-01-07T22:46:05.065Z,23.07
2018-01-07T22:48:32.722Z,17.47
2018-01-07T22:51:00.337Z,18.50
2018-01-07T22:53:27.977Z,15.67
2018-01-07T22:55:55.573Z,21.13
2018-01-07T22:58:23.232Z,18.50
2018-01-07T23:00:50.834Z,22.03
2018-01-07T23:03:18.444Z,19.23
2018-01-07T23:05:46.048Z,22.00
2018-01-07T23:08:13.641Z,20.73
2018-01-07T23:10:41.288Z,14.70
2018-01-07T23:13:08.944Z,20.77
2018-01-07T23:15:36.788Z,21.40
2018-01-07T23:18:04.701Z,16.27
2018-01-07T23:20:32.286Z,19.90
2018-01-07T23:22:59.904Z,27.03
2018-01-07T23:25:27.491Z,13.67
2018-01-07T23:27:55.071Z,17.37
2018-01-07T23:30:22.694Z,20.30
2018-01-07T23:32:50.275Z,19.00
2018-01-07T23:35:18.346Z,19.03
2018-01-07T23:37:45.936Z,19.00
2018-01-07T23:40:13.518Z,21.13
2018-01-07T23:42:41.115Z,19.13
2018-01-07T23:45:08.704Z,19.53
2018-01-07T23:47:36.376Z,30.13
2018-01-07T23:50:03.960Z,34.30
2018-01-07T23:52:31.552Z,22.97
2018-01-07T23:54:59.446Z,20.47
2018-01-07T23:57:27.043Z,20.90
2018-01-07T23:59:54.672Z,22.43
